Captain Ed — WDF6338 — position and weather

sailwx.info

Track history (hours):
 
Tides and Currents Weather Stations Pressure Air Temp Water Temp Dewpoint Dewpoint Depression Visibility Wind Speed Wind Dir Waves Ship Positions

Captain Ed

Owner: Norfolk Dredging Company, Chesapeake, VA. More information available from US FCC via Universal Licensing System and Coast Guard Vessel Documentation Center.

Last reported at 2017-Feb-04 22:16 UTC. Time now 2017-Feb-24 00:05 UTC.
Position N 36°55' W 076°20'.
Warning: this ship's position is 19 days out of date.

Length 22 m; draft 3 m.

Type: Tug. MMSI: 367473210.

Date/timePositionNaut miles runAvg speedWind from/ knotsBaromVisibWave heightAir tempDewpointWater temp
2017-Feb-04 22:16N 36°55' W 076°20'2 3.5
2017-Feb-04 21:33N 36°52' W 076°20'0 0.1
2017-Feb-04 20:33N 36°52' W 076°20'0 0.0
2017-Feb-04 19:33N 36°52' W 076°20'0 0.0
2017-Feb-04 18:33N 36°52' W 076°20'0 0.0
2017-Feb-04 17:33N 36°52' W 076°20'0 0.0
2017-Feb-04 16:33N 36°52' W 076°21'3 3.1
2017-Feb-04 15:33N 36°50' W 076°18'4 3.6
2017-Feb-04 14:33N 36°47' W 076°18'2 2.0
2017-Feb-04 13:33N 36°45' W 076°18'0 0.0
2017-Feb-04 12:33N 36°45' W 076°18'3 2.6
2017-Feb-04 11:28N 36°43' W 076°15'2 0.0
2017-Feb-02 20:14N 36°43' W 076°13'2 2.5
2017-Feb-02 19:28N 36°43' W 076°15'3 2.9
2017-Feb-02 18:33N 36°45' W 076°18'2 2.2
2017-Feb-02 17:33N 36°44' W 076°15'2 0.7
2017-Feb-02 14:15N 36°43' W 076°13'2 2.1
2017-Feb-02 13:24N 36°43' W 076°15'1 1.2
2017-Feb-02 12:33N 36°44' W 076°16'2 0.1
2017-Feb-01 18:27N 36°43' W 076°14'4 4.2
2017-Feb-01 17:33N 36°45' W 076°18'3 3.1
2017-Feb-01 16:33N 36°48' W 076°18'0 0.0
2017-Feb-01 15:33N 36°48' W 076°18'0 0.0
2017-Feb-01 14:33N 36°48' W 076°18'0 0.0
2017-Feb-01 12:33N 36°48' W 076°18'1 1.2
2017-Feb-01 11:33N 36°47' W 076°18'4 3.8
2017-Feb-01 10:27N 36°43' W 076°15'2 0.2
2017-Jan-31 23:22N 36°43' W 076°13'2 2.6
2017-Jan-31 22:33N 36°44' W 076°15'4 3.8
2017-Jan-31 21:33N 36°47' W 076°18'4 4.0
2017-Jan-31 20:33N 36°51' W 076°18'0 0.4
2017-Jan-31 19:33N 36°50' W 076°18'6 6.1
2017-Jan-31 18:33N 36°44' W 076°18'4 0.1
2017-Jan-30 00:14N 36°43' W 076°13'3 4.0
2017-Jan-29 23:34N 36°44' W 076°16'2 1.9
2017-Jan-29 22:34N 36°45' W 076°18'1 1.4
2017-Jan-29 21:33N 36°46' W 076°18'1 0.6
2017-Jan-29 20:34N 36°47' W 076°18'3 2.5
2017-Jan-29 19:34N 36°49' W 076°17'4 3.8
2017-Jan-29 18:33N 36°52' W 076°20'3 1.6
2017-Jan-29 16:33N 36°56' W 076°20'7 7.4
2017-Jan-29 15:34N 36°49' W 076°17'5 4.5
2017-Jan-29 14:30N 36°44' W 076°17'2 2.5
2017-Jan-29 13:33N 36°43' W 076°14'1 0.2
2017-Jan-29 07:21N 36°43' W 076°13'2 2.3
2017-Jan-29 06:33N 36°43' W 076°15'4 3.7
2017-Jan-29 05:33N 36°46' W 076°18'4 3.9
2017-Jan-29 04:33N 36°50' W 076°18'3 3.2
2017-Jan-29 03:33N 36°52' W 076°20'3 2.9
2017-Jan-29 02:25N 36°56' W 076°20'120 5.4
2017-Jan-28 04:07N 38°56' W 076°25'4 6.4
2017-Jan-28 03:33N 38°59' W 076°23'24 4.9
2017-Jan-27 22:33N 39°21' W 076°10'4 4.5
2017-Jan-27 21:33N 39°23' W 076°05'5 5.1
2017-Jan-27 20:33N 39°27' W 075°60'5 4.8
2017-Jan-27 19:33N 39°30' W 075°55'7 6.5
2017-Jan-27 18:33N 39°32' W 075°47'7 7.1
2017-Jan-27 17:33N 39°33' W 075°38'4 4.1
2017-Jan-27 16:33N 39°35' W 075°34'4 3.8
2017-Jan-27 15:33N 39°39' W 075°33'1 1.2
2017-Jan-27 14:33N 39°40' W 075°32'3 2.9
2017-Jan-27 13:33N 39°43' W 075°31'1 1.0
2017-Jan-27 12:33N 39°43' W 075°32'0 0.2
2017-Jan-27 11:33N 39°43' W 075°32'0 0.0
2017-Jan-27 10:33N 39°43' W 075°32'0 0.0
2017-Jan-27 09:33N 39°43' W 075°32'0 0.0
2017-Jan-27 08:33N 39°43' W 075°32'0 0.0
2017-Jan-27 07:33N 39°43' W 075°32'0 0.0
2017-Jan-27 06:33N 39°43' W 075°32'0 0.0
2017-Jan-27 05:33N 39°43' W 075°32'0 0.0
2017-Jan-27 04:33N 39°43' W 075°32'0 0.0
2017-Jan-27 03:33N 39°43' W 075°32'0 0.0
2017-Jan-27 02:33N 39°43' W 075°32'0 0.0
2017-Jan-27 01:33N 39°43' W 075°32'0 0.0
2017-Jan-27 00:33N 39°43' W 075°32'0 0.0
2017-Jan-26 23:33N 39°43' W 075°32'0 0.0
2017-Jan-26 22:33N 39°43' W 075°32'1 1.3
2017-Jan-26 21:33N 39°43' W 075°31'2 2.2
2017-Jan-26 20:33N 39°41' W 075°32'3 3.4
2017-Jan-26 19:33N 39°38' W 075°35'3 2.6
2017-Jan-26 18:33N 39°35' W 075°33'0 0.4
2017-Jan-26 17:33N 39°36' W 075°34'5 5.0
2017-Jan-26 16:33N 39°41' W 075°32'4 3.8
2017-Jan-26 15:33N 39°37' W 075°35'2 1.8
2017-Jan-26 14:33N 39°36' W 075°34'2 1.6
2017-Jan-26 13:33N 39°37' W 075°35'5 5.2
2017-Jan-26 12:33N 39°42' W 075°31'2 1.6
2017-Jan-26 11:33N 39°43' W 075°32'0 0.0
2017-Jan-26 10:34N 39°43' W 075°32'0 0.0
2017-Jan-26 09:33N 39°43' W 075°32'0 0.0
2017-Jan-26 08:33N 39°43' W 075°32'0 0.0
2017-Jan-26 07:34N 39°43' W 075°32'0 0.0
2017-Jan-26 06:34N 39°43' W 075°32'0 0.0
2017-Jan-26 05:34N 39°43' W 075°32'0 0.0
2017-Jan-26 04:34N 39°43' W 075°32'0 0.0
2017-Jan-26 03:34N 39°43' W 075°32'0 0.0
2017-Jan-26 02:33N 39°43' W 075°32'0 0.0
2017-Jan-26 01:34N 39°43' W 075°32'0 0.0
2017-Jan-26 00:33N 39°43' W 075°32'0 0.0
2017-Jan-25 23:33N 39°43' W 075°32'0 0.0
2017-Jan-25 22:33N 39°43' W 075°32'  
Track history (hours):
 
Tides and Currents Weather Stations Pressure Air Temp Water Temp Dewpoint Dewpoint Depression Visibility Wind Speed Wind Dir Waves Ship Positions

Captain Ed

Owner: Norfolk Dredging Company, Chesapeake, VA. More information available from US FCC via Universal Licensing System and Coast Guard Vessel Documentation Center.

Last reported at 2017-Feb-04 22:16 UTC. Time now 2017-Feb-24 00:05 UTC.
Position N 36°55' W 076°20'.
Warning: this ship's position is 19 days out of date.

Length 22 m; draft 3 m.

Type: Tug. MMSI: 367473210.

Date/timePositionNaut miles runAvg speedWind from/ knotsBaromVisibWave heightAir tempDewpointWater temp
2017-Feb-04 22:16N 36°55' W 076°20'2 3.5
2017-Feb-04 21:33N 36°52' W 076°20'0 0.1
2017-Feb-04 20:33N 36°52' W 076°20'0 0.0
2017-Feb-04 19:33N 36°52' W 076°20'0 0.0
2017-Feb-04 18:33N 36°52' W 076°20'0 0.0
2017-Feb-04 17:33N 36°52' W 076°20'0 0.0
2017-Feb-04 16:33N 36°52' W 076°21'3 3.1
2017-Feb-04 15:33N 36°50' W 076°18'4 3.6
2017-Feb-04 14:33N 36°47' W 076°18'2 2.0
2017-Feb-04 13:33N 36°45' W 076°18'0 0.0
2017-Feb-04 12:33N 36°45' W 076°18'3 2.6
2017-Feb-04 11:28N 36°43' W 076°15'2 0.0
2017-Feb-02 20:14N 36°43' W 076°13'2 2.5
2017-Feb-02 19:28N 36°43' W 076°15'3 2.9
2017-Feb-02 18:33N 36°45' W 076°18'2 2.2
2017-Feb-02 17:33N 36°44' W 076°15'2 0.7
2017-Feb-02 14:15N 36°43' W 076°13'2 2.1
2017-Feb-02 13:24N 36°43' W 076°15'1 1.2
2017-Feb-02 12:33N 36°44' W 076°16'2 0.1
2017-Feb-01 18:27N 36°43' W 076°14'4 4.2
2017-Feb-01 17:33N 36°45' W 076°18'3 3.1
2017-Feb-01 16:33N 36°48' W 076°18'0 0.0
2017-Feb-01 15:33N 36°48' W 076°18'0 0.0
2017-Feb-01 14:33N 36°48' W 076°18'0 0.0
2017-Feb-01 12:33N 36°48' W 076°18'1 1.2
2017-Feb-01 11:33N 36°47' W 076°18'4 3.8
2017-Feb-01 10:27N 36°43' W 076°15'2 0.2
2017-Jan-31 23:22N 36°43' W 076°13'2 2.6
2017-Jan-31 22:33N 36°44' W 076°15'4 3.8
2017-Jan-31 21:33N 36°47' W 076°18'4 4.0
2017-Jan-31 20:33N 36°51' W 076°18'0 0.4
2017-Jan-31 19:33N 36°50' W 076°18'6 6.1
2017-Jan-31 18:33N 36°44' W 076°18'4 0.1
2017-Jan-30 00:14N 36°43' W 076°13'3 4.0
2017-Jan-29 23:34N 36°44' W 076°16'2 1.9
2017-Jan-29 22:34N 36°45' W 076°18'1 1.4
2017-Jan-29 21:33N 36°46' W 076°18'1 0.6
2017-Jan-29 20:34N 36°47' W 076°18'3 2.5
2017-Jan-29 19:34N 36°49' W 076°17'4 3.8
2017-Jan-29 18:33N 36°52' W 076°20'3 1.6
2017-Jan-29 16:33N 36°56' W 076°20'7 7.4
2017-Jan-29 15:34N 36°49' W 076°17'5 4.5
2017-Jan-29 14:30N 36°44' W 076°17'2 2.5
2017-Jan-29 13:33N 36°43' W 076°14'1 0.2
2017-Jan-29 07:21N 36°43' W 076°13'2 2.3
2017-Jan-29 06:33N 36°43' W 076°15'4 3.7
2017-Jan-29 05:33N 36°46' W 076°18'4 3.9
2017-Jan-29 04:33N 36°50' W 076°18'3 3.2
2017-Jan-29 03:33N 36°52' W 076°20'3 2.9
2017-Jan-29 02:25N 36°56' W 076°20'120 5.4
2017-Jan-28 04:07N 38°56' W 076°25'4 6.4
2017-Jan-28 03:33N 38°59' W 076°23'24 4.9
2017-Jan-27 22:33N 39°21' W 076°10'4 4.5
2017-Jan-27 21:33N 39°23' W 076°05'5 5.1
2017-Jan-27 20:33N 39°27' W 075°60'5 4.8
2017-Jan-27 19:33N 39°30' W 075°55'7 6.5
2017-Jan-27 18:33N 39°32' W 075°47'7 7.1
2017-Jan-27 17:33N 39°33' W 075°38'4 4.1
2017-Jan-27 16:33N 39°35' W 075°34'4 3.8
2017-Jan-27 15:33N 39°39' W 075°33'1 1.2
2017-Jan-27 14:33N 39°40' W 075°32'3 2.9
2017-Jan-27 13:33N 39°43' W 075°31'1 1.0
2017-Jan-27 12:33N 39°43' W 075°32'0 0.2
2017-Jan-27 11:33N 39°43' W 075°32'0 0.0
2017-Jan-27 10:33N 39°43' W 075°32'0 0.0
2017-Jan-27 09:33N 39°43' W 075°32'0 0.0
2017-Jan-27 08:33N 39°43' W 075°32'0 0.0
2017-Jan-27 07:33N 39°43' W 075°32'0 0.0
2017-Jan-27 06:33N 39°43' W 075°32'0 0.0
2017-Jan-27 05:33N 39°43' W 075°32'0 0.0
2017-Jan-27 04:33N 39°43' W 075°32'0 0.0
2017-Jan-27 03:33N 39°43' W 075°32'0 0.0
2017-Jan-27 02:33N 39°43' W 075°32'0 0.0
2017-Jan-27 01:33N 39°43' W 075°32'0 0.0
2017-Jan-27 00:33N 39°43' W 075°32'0 0.0
2017-Jan-26 23:33N 39°43' W 075°32'0 0.0
2017-Jan-26 22:33N 39°43' W 075°32'1 1.3
2017-Jan-26 21:33N 39°43' W 075°31'2 2.2
2017-Jan-26 20:33N 39°41' W 075°32'3 3.4
2017-Jan-26 19:33N 39°38' W 075°35'3 2.6
2017-Jan-26 18:33N 39°35' W 075°33'0 0.4
2017-Jan-26 17:33N 39°36' W 075°34'5 5.0
2017-Jan-26 16:33N 39°41' W 075°32'4 3.8
2017-Jan-26 15:33N 39°37' W 075°35'2 1.8
2017-Jan-26 14:33N 39°36' W 075°34'2 1.6
2017-Jan-26 13:33N 39°37' W 075°35'5 5.2
2017-Jan-26 12:33N 39°42' W 075°31'2 1.6
2017-Jan-26 11:33N 39°43' W 075°32'0 0.0
2017-Jan-26 10:34N 39°43' W 075°32'0 0.0
2017-Jan-26 09:33N 39°43' W 075°32'0 0.0
2017-Jan-26 08:33N 39°43' W 075°32'0 0.0
2017-Jan-26 07:34N 39°43' W 075°32'0 0.0
2017-Jan-26 06:34N 39°43' W 075°32'0 0.0
2017-Jan-26 05:34N 39°43' W 075°32'0 0.0
2017-Jan-26 04:34N 39°43' W 075°32'0 0.0
2017-Jan-26 03:34N 39°43' W 075°32'0 0.0
2017-Jan-26 02:33N 39°43' W 075°32'0 0.0
2017-Jan-26 01:34N 39°43' W 075°32'0 0.0
2017-Jan-26 00:33N 39°43' W 075°32'0 0.0
2017-Jan-25 23:33N 39°43' W 075°32'0 0.0
2017-Jan-25 22:33N 39°43' W 075°32'  

Dump ship's entire track history